createdAt,value
2019-03-04T00:01:55.085Z,11.04
2019-03-04T00:04:25.781Z,11.04
2019-03-04T00:06:56.049Z,10.97
2019-03-04T00:09:26.280Z,10.97
2019-03-04T00:11:57.774Z,11.00
2019-03-04T00:14:27.864Z,11.02
2019-03-04T00:17:00.108Z,10.98
2019-03-04T00:19:30.302Z,11.04
2019-03-04T00:22:00.482Z,10.99
2019-03-04T00:24:30.566Z,11.05
2019-03-04T00:27:00.754Z,11.07
2019-03-04T00:29:34.318Z,11.11
2019-03-04T00:32:06.004Z,11.15
2019-03-04T00:34:36.116Z,11.18
2019-03-04T00:37:06.565Z,11.17
2019-03-04T00:39:36.788Z,11.26
2019-03-04T00:42:06.934Z,11.32
2019-03-04T00:44:37.560Z,11.37
2019-03-04T00:47:07.708Z,11.32
2019-03-04T00:49:40.852Z,11.46
2019-03-04T00:52:10.996Z,11.52
2019-03-04T00:54:41.080Z,11.51
2019-03-04T00:57:11.204Z,11.59
2019-03-04T00:59:42.324Z,11.61
2019-03-04T01:02:12.723Z,11.63
2019-03-04T01:04:42.838Z,11.64
2019-03-04T01:07:13.386Z,11.67
2019-03-04T01:09:43.800Z,11.61
2019-03-04T01:12:14.332Z,11.64
2019-03-04T01:14:44.417Z,11.67
2019-03-04T01:17:14.536Z,11.66
2019-03-04T01:19:44.672Z,11.70
2019-03-04T01:22:20.555Z,11.68
2019-03-04T01:24:52.289Z,11.70
2019-03-04T01:27:22.424Z,11.68
2019-03-04T01:29:52.544Z,11.60
2019-03-04T01:32:22.680Z,11.66
2019-03-04T01:34:52.808Z,11.60
2019-03-04T01:37:24.554Z,11.66
2019-03-04T01:39:56.232Z,11.69
2019-03-04T01:42:26.314Z,11.75
2019-03-04T01:44:56.764Z,11.72
2019-03-04T01:47:27.444Z,11.69
2019-03-04T01:49:57.576Z,11.68
2019-03-04T01:52:27.728Z,11.77
2019-03-04T01:54:57.952Z,11.78
2019-03-04T01:57:28.479Z,11.79
2019-03-04T01:59:58.605Z,11.77
2019-03-04T02:02:29.103Z,11.72
2019-03-04T02:05:02.010Z,11.78
2019-03-04T02:07:34.707Z,11.74
2019-03-04T02:10:05.000Z,11.76
2019-03-04T02:12:35.100Z,11.74
2019-03-04T02:15:06.620Z,11.81
2019-03-04T02:17:41.137Z,11.83
2019-03-04T02:20:12.122Z,11.77
2019-03-04T02:22:43.560Z,11.78
2019-03-04T02:25:17.249Z,11.82
2019-03-04T02:27:50.113Z,11.80
2019-03-04T02:30:26.120Z,11.85
2019-03-04T02:32:56.230Z,11.86
2019-03-04T02:35:27.471Z,11.92
2019-03-04T02:37:57.612Z,11.85
2019-03-04T02:40:27.727Z,11.92
2019-03-04T02:42:57.843Z,11.94
2019-03-04T02:45:30.231Z,11.95
2019-03-04T02:48:00.336Z,11.98
2019-03-04T02:50:30.883Z,11.89
2019-03-04T02:53:03.485Z,11.94
2019-03-04T02:55:33.599Z,11.93
2019-03-04T02:58:03.754Z,11.95
2019-03-04T03:00:34.884Z,11.92
2019-03-04T03:05:54.900Z,11.98
2019-03-04T03:08:27.155Z,12.01
2019-03-04T03:10:57.423Z,12.02
2019-03-04T03:13:27.555Z,12.03
2019-03-04T03:16:03.373Z,12.06
2019-03-04T03:18:33.536Z,12.05
2019-03-04T03:21:03.669Z,12.08
2019-03-04T03:23:42.485Z,12.08
2019-03-04T03:26:13.861Z,12.04
2019-03-04T03:28:43.993Z,12.01
2019-03-04T03:31:14.124Z,11.94
2019-03-04T03:33:44.223Z,12.05
2019-03-04T03:36:14.558Z,12.09
2019-03-04T03:38:47.235Z,12.11
2019-03-04T03:41:20.602Z,12.08
2019-03-04T03:43:53.628Z,12.08
2019-03-04T03:46:23.757Z,12.10
2019-03-04T03:48:54.075Z,12.12
2019-03-04T03:51:34.601Z,12.01
2019-03-04T03:54:04.717Z,12.11
2019-03-04T03:56:34.863Z,12.05
2019-03-04T03:59:09.108Z,12.08
2019-03-04T04:01:40.674Z,12.03
2019-03-04T04:04:10.961Z,12.04
2019-03-04T04:06:41.155Z,12.01
2019-03-04T04:09:11.419Z,11.98
2019-03-04T04:11:44.445Z,11.91
2019-03-04T04:14:14.924Z,11.78
2019-03-04T04:16:45.202Z,11.81
2019-03-04T04:19:19.036Z,11.77
2019-03-04T04:21:53.369Z,11.75
2019-03-04T04:24:25.199Z,11.72
2019-03-04T04:27:09.784Z,11.63
2019-03-04T04:29:39.908Z,11.64
2019-03-04T04:32:10.388Z,11.69
2019-03-04T04:34:40.575Z,11.69
2019-03-04T04:37:13.205Z,11.70
2019-03-04T04:39:43.366Z,11.80
2019-03-04T04:42:18.183Z,11.77
2019-03-04T04:44:50.790Z,11.75
2019-03-04T04:47:22.574Z,11.75
2019-03-04T04:49:54.318Z,11.76
2019-03-04T04:52:24.450Z,11.79
2019-03-04T04:54:54.592Z,11.80
2019-03-04T04:57:29.622Z,11.80
2019-03-04T05:00:02.642Z,11.71
2019-03-04T05:02:33.127Z,11.76
2019-03-04T05:05:04.786Z,11.72
2019-03-04T05:07:37.080Z,11.63
2019-03-04T05:10:10.294Z,11.57
2019-03-04T05:12:45.642Z,11.49
2019-03-04T05:15:17.458Z,11.49
2019-03-04T05:17:50.636Z,11.50
2019-03-04T05:20:21.484Z,11.43
2019-03-04T05:22:51.641Z,11.43
2019-03-04T05:25:24.722Z,11.47
2019-03-04T05:28:00.099Z,11.46
2019-03-04T05:30:30.625Z,11.47
2019-03-04T05:33:01.249Z,11.41
2019-03-04T05:35:31.410Z,11.39
2019-03-04T05:38:01.698Z,11.39
2019-03-04T05:40:31.814Z,11.37
2019-03-04T05:43:05.028Z,11.39
2019-03-04T05:45:40.526Z,11.37
2019-03-04T05:48:12.859Z,11.36
2019-03-04T05:50:43.015Z,11.38
2019-03-04T05:53:13.493Z,11.47
2019-03-04T05:55:43.724Z,11.44
2019-03-04T05:58:15.362Z,11.46
2019-03-04T06:00:46.098Z,11.49
2019-03-04T06:03:16.475Z,11.49
2019-03-04T06:05:46.751Z,11.53
2019-03-04T06:08:17.099Z,11.54
2019-03-04T06:10:47.283Z,11.52
2019-03-04T06:13:17.563Z,11.48
2019-03-04T06:15:47.708Z,11.61
2019-03-04T06:18:17.965Z,11.64
2019-03-04T06:20:48.133Z,11.66
2019-03-04T06:23:21.317Z,11.67
2019-03-04T06:25:51.484Z,11.63
2019-03-04T06:28:24.723Z,11.61
2019-03-04T06:30:55.029Z,11.58
2019-03-04T06:33:26.198Z,11.57
2019-03-04T06:35:58.033Z,11.57
2019-03-04T06:38:28.302Z,11.61
2019-03-04T06:40:58.467Z,11.84
2019-03-04T06:43:29.632Z,11.96
2019-03-04T06:46:01.319Z,12.01
2019-03-04T06:48:31.471Z,12.13
2019-03-04T06:51:03.483Z,12.19
2019-03-04T06:53:40.722Z,12.29
2019-03-04T06:56:32.025Z,12.32
2019-03-04T06:59:22.361Z,12.40
2019-03-04T07:01:55.893Z,12.44
2019-03-04T07:04:34.199Z,12.45
2019-03-04T07:07:05.478Z,12.50
2019-03-04T07:09:36.976Z,12.52
2019-03-04T07:12:07.365Z,12.53
2019-03-04T07:14:37.546Z,12.57
2019-03-04T07:17:07.923Z,12.51
2019-03-04T07:19:39.655Z,12.47
2019-03-04T07:22:11.481Z,12.54
2019-03-04T07:24:43.083Z,12.58
2019-03-04T07:27:13.704Z,12.66
2019-03-04T07:29:47.859Z,12.73
2019-03-04T07:32:17.978Z,12.71
2019-03-04T07:34:51.055Z,12.75
2019-03-04T07:37:21.753Z,12.80
2019-03-04T07:39:52.113Z,12.85
2019-03-04T07:42:22.332Z,13.00
2019-03-04T07:44:55.786Z,13.16
2019-03-04T07:47:26.093Z,13.24
2019-03-04T07:49:58.079Z,13.22
2019-03-04T07:52:30.947Z,13.17
2019-03-04T07:55:01.649Z,13.32
2019-03-04T07:57:34.818Z,13.33
2019-03-04T08:00:06.938Z,13.49
2019-03-04T08:02:38.389Z,13.72
2019-03-04T08:05:09.283Z,13.90
2019-03-04T08:07:42.042Z,13.83
2019-03-04T08:10:57.351Z,13.81
2019-03-04T08:13:40.372Z,13.83
2019-03-04T08:16:12.837Z,13.67
2019-03-04T08:18:44.476Z,13.35
2019-03-04T08:21:15.200Z,12.78
2019-03-04T08:23:45.318Z,10.41
2019-03-04T08:26:15.386Z,9.69
2019-03-04T08:28:45.591Z,9.25
2019-03-04T08:31:16.146Z,9.28
2019-03-04T08:33:47.067Z,9.55
2019-03-04T08:36:20.738Z,9.90
2019-03-04T08:38:52.114Z,9.82
2019-03-04T08:41:22.262Z,9.79
2019-03-04T08:43:53.988Z,9.59
2019-03-04T08:46:24.096Z,9.56
2019-03-04T08:48:55.936Z,9.42
2019-03-04T08:51:26.158Z,9.42
2019-03-04T08:53:57.965Z,9.60
2019-03-04T08:56:30.886Z,9.46
2019-03-04T08:59:03.702Z,9.71
2019-03-04T09:01:35.976Z,9.47
2019-03-04T09:04:06.133Z,9.37
2019-03-04T09:06:39.242Z,9.21
2019-03-04T09:09:11.661Z,9.29
2019-03-04T09:11:44.556Z,9.45
2019-03-04T09:14:14.700Z,9.46
2019-03-04T09:16:44.959Z,9.43
2019-03-04T09:19:16.467Z,9.63
2019-03-04T09:21:46.734Z,9.44
2019-03-04T09:24:17.962Z,9.62
2019-03-04T09:26:48.076Z,9.68
2019-03-04T09:29:20.361Z,9.85
2019-03-04T09:31:50.498Z,9.89
2019-03-04T09:34:22.109Z,9.92
2019-03-04T09:36:52.237Z,10.18
2019-03-04T09:39:22.329Z,10.21
2019-03-04T09:41:57.156Z,10.31
2019-03-04T09:44:27.424Z,10.28
2019-03-04T09:46:57.891Z,10.56
2019-03-04T09:49:28.487Z,10.66
2019-03-04T09:51:58.722Z,10.79
2019-03-04T09:54:30.913Z,10.78
2019-03-04T09:57:04.635Z,10.68
2019-03-04T09:59:34.791Z,10.75
2019-03-04T10:02:09.656Z,10.69
2019-03-04T10:05:04.490Z,10.78
2019-03-04T10:08:03.567Z,11.08
2019-03-04T10:11:01.613Z,11.39
2019-03-04T10:13:48.327Z,11.66
2019-03-04T10:16:43.451Z,11.56
2019-03-04T10:20:15.823Z,11.64
2019-03-04T10:23:02.824Z,11.54
2019-03-04T10:26:08.881Z,11.39
2019-03-04T10:29:16.067Z,11.32
2019-03-04T10:32:13.825Z,11.28
2019-03-04T10:35:20.435Z,11.52
2019-03-04T10:38:22.774Z,11.43
2019-03-04T10:41:04.489Z,11.57
2019-03-04T10:44:30.063Z,11.66
2019-03-04T10:47:01.413Z,12.01
2019-03-04T10:49:33.183Z,12.10
2019-03-04T10:52:09.123Z,12.24
2019-03-04T10:54:41.034Z,12.11
2019-03-04T10:57:13.539Z,12.03
2019-03-04T10:59:46.209Z,12.16
2019-03-04T11:02:16.475Z,12.30
2019-03-04T11:04:47.713Z,12.33
2019-03-04T11:07:19.059Z,12.35
2019-03-04T11:09:49.239Z,12.40
2019-03-04T11:12:21.284Z,12.55
2019-03-04T11:14:51.619Z,12.44
2019-03-04T11:17:21.849Z,12.19
2019-03-04T11:19:54.199Z,12.03
2019-03-04T11:22:25.920Z,12.03
2019-03-04T11:24:56.146Z,12.09
2019-03-04T11:27:32.406Z,12.20
2019-03-04T11:29:59.679Z,12.42
2019-03-04T11:32:29.821Z,12.64
2019-03-04T11:35:00.095Z,12.90
2019-03-04T11:37:30.439Z,13.13
2019-03-04T11:40:08.795Z,12.85
2019-03-04T11:42:40.900Z,12.85
2019-03-04T11:45:15.278Z,13.03
2019-03-04T11:47:45.747Z,12.89
2019-03-04T11:50:16.225Z,12.55
2019-03-04T11:52:47.313Z,12.22
2019-03-04T11:55:17.884Z,11.42
2019-03-04T11:57:48.350Z,10.61
2019-03-04T12:00:24.548Z,10.48
2019-03-04T12:02:54.787Z,10.55
2019-03-04T12:05:25.035Z,10.58
2019-03-04T12:07:56.486Z,10.44
2019-03-04T12:10:26.694Z,10.59
2019-03-04T12:12:56.893Z,10.74
2019-03-04T12:15:27.136Z,10.88
2019-03-04T12:17:57.316Z,10.99
2019-03-04T12:20:27.668Z,11.09
2019-03-04T12:22:59.262Z,11.12
2019-03-04T12:25:30.774Z,10.85
2019-03-04T12:28:01.048Z,10.77
2019-03-04T12:30:33.702Z,10.97
2019-03-04T12:33:05.730Z,11.22
2019-03-04T12:35:35.928Z,11.27
2019-03-04T12:38:09.343Z,11.55
2019-03-04T12:40:39.554Z,11.66
2019-03-04T12:43:09.873Z,12.07
2019-03-04T12:45:40.374Z,12.03
2019-03-04T12:48:10.667Z,12.01
2019-03-04T12:50:40.885Z,11.83
2019-03-04T12:53:11.584Z,11.48
2019-03-04T12:55:43.038Z,11.16
2019-03-04T12:58:14.659Z,11.07
2019-03-04T13:00:44.922Z,10.89
2019-03-04T13:03:20.396Z,9.73
2019-03-04T13:05:51.990Z,9.06
2019-03-04T13:08:25.107Z,8.43
2019-03-04T13:10:55.790Z,8.31
2019-03-04T13:13:28.243Z,7.76
2019-03-04T13:16:00.004Z,7.40
2019-03-04T13:18:30.606Z,7.20
2019-03-04T13:21:00.805Z,7.20
2019-03-04T13:23:31.044Z,7.30
2019-03-04T13:26:01.561Z,7.26
2019-03-04T13:28:31.841Z,7.47
2019-03-04T13:31:02.930Z,7.47
2019-03-04T13:33:33.092Z,7.37
2019-03-04T13:36:03.168Z,7.68
2019-03-04T13:38:36.292Z,7.70
2019-03-04T13:41:07.309Z,7.60
2019-03-04T13:43:37.415Z,8.01
2019-03-04T13:46:07.538Z,8.28
2019-03-04T13:48:42.295Z,8.61
2019-03-04T13:51:13.962Z,8.53
2019-03-04T13:53:45.094Z,8.24
2019-03-04T13:56:15.192Z,8.46
2019-03-04T13:58:45.355Z,8.42
2019-03-04T14:01:16.029Z,8.45
2019-03-04T14:03:47.097Z,8.27
2019-03-04T14:06:18.335Z,8.24
2019-03-04T14:08:49.860Z,8.30
2019-03-04T14:11:22.529Z,8.44
2019-03-04T14:13:52.843Z,8.21
2019-03-04T14:16:23.963Z,8.43
2019-03-04T14:18:54.049Z,8.83
2019-03-04T14:21:24.810Z,8.90
2019-03-04T14:23:55.919Z,9.01
2019-03-04T14:26:26.091Z,9.10
2019-03-04T14:28:56.600Z,9.08
2019-03-04T14:31:29.408Z,9.05
2019-03-04T14:34:03.395Z,8.86
2019-03-04T14:36:39.226Z,8.89
2019-03-04T14:39:16.116Z,8.92
2019-03-04T14:41:46.238Z,8.62
2019-03-04T14:44:16.357Z,8.81
2019-03-04T14:46:46.419Z,8.65
2019-03-04T14:49:16.573Z,8.79
2019-03-04T14:51:47.050Z,8.80
2019-03-04T14:54:17.195Z,8.84
2019-03-04T14:56:47.514Z,8.73
2019-03-04T14:59:20.700Z,8.63
2019-03-04T15:01:53.979Z,8.82
2019-03-04T15:04:27.113Z,8.91
2019-03-04T15:06:58.137Z,9.15
2019-03-04T15:09:28.261Z,9.19
2019-03-04T15:11:58.582Z,9.09
2019-03-04T15:14:29.784Z,9.04
2019-03-04T15:17:03.551Z,9.14
2019-03-04T15:19:33.960Z,9.21
2019-03-04T15:22:04.080Z,9.26
2019-03-04T15:24:37.191Z,9.20
2019-03-04T15:27:07.297Z,9.18
2019-03-04T15:29:37.841Z,8.96
2019-03-04T15:32:08.418Z,8.71
2019-03-04T15:34:38.774Z,8.81
2019-03-04T15:37:09.147Z,8.82
2019-03-04T15:39:41.183Z,8.84
2019-03-04T15:42:11.665Z,8.88
2019-03-04T15:44:45.928Z,8.81
2019-03-04T15:47:18.647Z,8.79
2019-03-04T15:49:49.378Z,8.64
2019-03-04T15:52:19.875Z,8.59
2019-03-04T15:54:52.442Z,8.49
2019-03-04T15:57:22.756Z,8.52
2019-03-04T15:59:57.747Z,8.58
2019-03-04T16:02:32.856Z,8.69
2019-03-04T16:05:04.748Z,8.75
2019-03-04T16:07:38.260Z,8.74
2019-03-04T16:10:15.467Z,8.69
2019-03-04T16:12:47.342Z,8.60
2019-03-04T16:15:29.756Z,8.62
2019-03-04T16:18:00.638Z,8.50
2019-03-04T16:20:31.732Z,8.47
2019-03-04T16:23:05.076Z,8.46
2019-03-04T16:25:36.962Z,8.18
2019-03-04T16:28:12.976Z,8.30
2019-03-04T16:30:44.156Z,8.40
2019-03-04T16:33:14.319Z,8.28
2019-03-04T16:35:45.581Z,8.27
2019-03-04T16:38:16.671Z,8.23
2019-03-04T16:40:48.454Z,8.36
2019-03-04T16:43:18.627Z,8.38
2019-03-04T16:45:50.382Z,8.27
2019-03-04T16:48:20.657Z,8.36
2019-03-04T16:50:51.851Z,8.27
2019-03-04T16:53:44.578Z,8.32
2019-03-04T16:56:14.788Z,8.36
2019-03-04T16:58:44.906Z,8.15
2019-03-04T17:01:15.336Z,8.16
2019-03-04T17:03:45.714Z,8.29
2019-03-04T17:06:17.352Z,8.35
2019-03-04T17:08:52.099Z,8.24
2019-03-04T17:11:24.912Z,8.25
2019-03-04T17:13:55.854Z,8.32
2019-03-04T17:16:25.979Z,8.11
2019-03-04T17:18:56.313Z,8.05
2019-03-04T17:21:28.085Z,7.98
2019-03-04T17:23:59.365Z,8.03
2019-03-04T17:26:35.264Z,8.07
2019-03-04T17:29:05.628Z,8.05
2019-03-04T17:31:37.916Z,7.91
2019-03-04T17:34:07.772Z,7.92
2019-03-04T17:36:41.241Z,7.83
2019-03-04T17:39:14.096Z,7.77
2019-03-04T17:41:44.996Z,7.67
2019-03-04T17:44:22.485Z,7.68
2019-03-04T17:46:53.087Z,7.70
2019-03-04T17:49:24.136Z,7.61
2019-03-04T17:51:55.437Z,7.71
2019-03-04T17:54:25.720Z,7.68
2019-03-04T17:56:56.165Z,7.75
2019-03-04T17:59:26.374Z,7.82
2019-03-04T18:01:57.040Z,7.82
2019-03-04T18:04:27.258Z,7.79
2019-03-04T18:06:57.539Z,7.77
2019-03-04T18:09:27.670Z,7.84
2019-03-04T18:12:03.110Z,7.87
2019-03-04T18:14:34.375Z,7.87
2019-03-04T18:17:04.618Z,7.95
2019-03-04T18:19:35.226Z,7.93
2019-03-04T18:22:05.779Z,7.99
2019-03-04T18:24:36.069Z,7.99
2019-03-04T18:27:15.855Z,7.96
2019-03-04T18:30:33.173Z,7.88
2019-03-04T18:33:31.111Z,7.97
2019-03-04T18:36:42.114Z,7.88
2019-03-04T18:39:59.591Z,7.90
2019-03-04T18:42:54.440Z,7.84
2019-03-04T18:46:23.901Z,7.81
2019-03-04T18:48:58.331Z,7.75
2019-03-04T18:51:33.288Z,7.80
2019-03-04T18:54:22.661Z,7.75
2019-03-04T18:56:52.790Z,7.68
2019-03-04T18:59:23.104Z,7.65
2019-03-04T19:01:53.734Z,7.68
2019-03-04T19:04:25.344Z,7.65
2019-03-04T19:06:58.574Z,7.69
2019-03-04T19:09:28.797Z,7.67
2019-03-04T19:11:59.085Z,7.57
2019-03-04T19:14:29.772Z,7.51
2019-03-04T19:16:59.999Z,7.58
2019-03-04T19:19:31.706Z,7.47
2019-03-04T19:22:01.916Z,7.39
2019-03-04T19:24:32.083Z,7.36
2019-03-04T19:27:06.113Z,7.44
2019-03-04T19:29:36.306Z,7.41
2019-03-04T19:32:06.523Z,7.39
2019-03-04T19:34:36.706Z,7.41
2019-03-04T19:37:07.374Z,7.33
2019-03-04T19:39:41.550Z,7.35
2019-03-04T19:42:11.711Z,7.17
2019-03-04T19:44:41.780Z,7.14
2019-03-04T19:47:16.155Z,7.09
2019-03-04T19:49:46.582Z,6.97
2019-03-04T19:52:17.060Z,6.93
2019-03-04T19:54:51.108Z,6.92
2019-03-04T19:57:26.411Z,6.89
2019-03-04T19:59:56.588Z,6.80
2019-03-04T20:02:27.208Z,6.80
2019-03-04T20:04:57.532Z,6.82
2019-03-04T20:07:27.741Z,6.74
2019-03-04T20:09:58.303Z,6.78
2019-03-04T20:12:30.637Z,6.80
2019-03-04T20:15:02.167Z,6.85
2019-03-04T20:17:32.965Z,6.94
2019-03-04T20:20:04.097Z,6.87
2019-03-04T20:22:34.456Z,6.71
2019-03-04T20:25:12.494Z,6.74
2019-03-04T20:27:44.265Z,6.74
2019-03-04T20:30:17.510Z,6.64
2019-03-04T20:32:50.531Z,6.68
2019-03-04T20:35:24.239Z,6.72
2019-03-04T20:37:57.224Z,6.62
2019-03-04T20:40:34.632Z,6.58
2019-03-04T20:43:19.886Z,6.55
2019-03-04T20:46:12.709Z,6.61
2019-03-04T20:48:25.912Z,6.63
2019-03-04T20:50:56.427Z,6.76
2019-03-04T20:53:27.005Z,6.85
2019-03-04T20:56:00.633Z,6.88
2019-03-04T20:58:33.364Z,6.93
2019-03-04T21:01:03.774Z,7.04
2019-03-04T21:03:38.633Z,7.07
2019-03-04T21:06:10.140Z,7.12
2019-03-04T21:08:40.452Z,7.06
2019-03-04T21:11:10.877Z,7.16
2019-03-04T21:13:42.776Z,7.05
2019-03-04T21:16:13.040Z,7.14
2019-03-04T21:18:47.651Z,7.11
2019-03-04T21:21:17.907Z,7.17
2019-03-04T21:23:48.577Z,7.17
2019-03-04T21:26:25.689Z,7.15
2019-03-04T21:29:32.646Z,7.01
2019-03-04T21:32:22.857Z,6.97
2019-03-04T21:35:47.334Z,6.83
2019-03-04T21:38:20.729Z,6.77
2019-03-04T21:41:21.696Z,6.74
2019-03-04T21:44:01.506Z,6.67
2019-03-04T21:47:28.188Z,6.58
2019-03-04T21:49:58.843Z,6.56
2019-03-04T21:52:56.778Z,6.48
2019-03-04T21:55:32.641Z,6.56
2019-03-04T21:58:03.294Z,6.59
2019-03-04T22:00:40.230Z,6.57
2019-03-04T22:03:21.781Z,6.57
2019-03-04T22:05:52.761Z,6.60
2019-03-04T22:08:23.288Z,6.67
2019-03-04T22:10:54.638Z,6.75
2019-03-04T22:13:25.366Z,6.71
2019-03-04T22:15:55.564Z,6.65
2019-03-04T22:18:28.163Z,6.68
2019-03-04T22:20:58.660Z,6.73
2019-03-04T22:23:29.272Z,6.72
2019-03-04T22:26:02.459Z,6.77
2019-03-04T22:28:36.102Z,6.88
2019-03-04T22:31:08.333Z,6.99
2019-03-04T22:33:38.868Z,6.95
2019-03-04T22:36:12.190Z,6.94
2019-03-04T22:38:42.861Z,6.98
2019-03-04T22:41:13.891Z,7.08
2019-03-04T22:43:44.943Z,7.06
2019-03-04T22:46:15.308Z,7.04
2019-03-04T22:48:46.216Z,7.07
2019-03-04T22:51:16.576Z,7.02
2019-03-04T22:53:46.802Z,7.05
2019-03-04T22:56:17.049Z,7.05
2019-03-04T22:58:47.352Z,6.99
2019-03-04T23:01:59.492Z,7.00
2019-03-04T23:04:59.368Z,6.88
2019-03-04T23:07:53.632Z,6.84
2019-03-04T23:10:34.643Z,6.74
2019-03-04T23:13:41.165Z,6.72
2019-03-04T23:16:13.136Z,6.68
2019-03-04T23:18:43.553Z,6.63
2019-03-04T23:21:14.885Z,6.62
2019-03-04T23:23:45.423Z,6.71
2019-03-04T23:26:15.662Z,6.78
2019-03-04T23:28:50.633Z,6.75
2019-03-04T23:31:22.313Z,6.86
2019-03-04T23:33:52.529Z,6.90
2019-03-04T23:36:22.687Z,6.98
2019-03-04T23:38:52.802Z,6.99
2019-03-04T23:41:23.049Z,7.04
2019-03-04T23:43:53.183Z,7.04
2019-03-04T23:46:23.817Z,6.97
2019-03-04T23:48:53.939Z,7.11
2019-03-04T23:51:24.321Z,7.13
2019-03-04T23:53:54.500Z,7.17
2019-03-04T23:56:25.971Z,7.14
2019-03-04T23:58:56.304Z,7.13
